createdAt,value
2019-03-10T21:19:10.496Z,2.80
2019-03-10T21:21:39.622Z,2.83
2019-03-10T21:24:09.284Z,3.10
2019-03-10T21:26:38.952Z,3.03
2019-03-10T21:29:10.669Z,2.97
2019-03-10T21:31:40.417Z,2.30
2019-03-10T21:34:10.070Z,2.27
2019-03-10T21:36:39.714Z,2.47
2019-03-10T21:39:09.523Z,1.93
2019-03-10T21:41:39.184Z,1.80
2019-03-10T21:44:08.840Z,2.33
2019-03-10T21:46:38.476Z,2.00
2019-03-10T21:49:07.622Z,1.87
2019-03-10T21:51:37.353Z,2.00
2019-03-10T21:54:07.072Z,2.00
2019-03-10T21:56:36.706Z,1.60
2019-03-10T21:59:06.451Z,2.00
2019-03-10T22:01:36.089Z,1.77
2019-03-10T22:04:05.724Z,2.00
2019-03-10T22:06:35.377Z,2.20
2019-03-10T22:09:05.937Z,2.13
2019-03-10T22:11:35.567Z,1.70
2019-03-10T22:14:05.893Z,2.40
2019-03-10T22:16:35.550Z,2.47
2019-03-10T22:19:05.360Z,2.07
2019-03-10T22:21:35.116Z,1.80
2019-03-10T22:24:04.885Z,2.17
2019-03-10T22:26:34.523Z,2.03
2019-03-10T22:29:04.360Z,1.63
2019-03-10T22:31:34.012Z,2.10
2019-03-10T22:34:03.652Z,1.63
2019-03-10T22:36:33.283Z,1.60
2019-03-10T22:39:04.623Z,1.70
2019-03-10T22:41:34.286Z,2.00
2019-03-10T22:44:03.926Z,2.00
2019-03-10T22:46:33.592Z,1.83
2019-03-10T22:49:03.344Z,1.47
2019-03-10T22:51:33.024Z,1.80
2019-03-10T22:54:02.768Z,1.30
2019-03-10T22:56:32.406Z,2.10
2019-03-10T22:59:02.108Z,2.00
2019-03-10T23:01:31.761Z,1.57
2019-03-10T23:04:01.403Z,1.70
2019-03-10T23:06:31.111Z,1.60
2019-03-10T23:09:00.855Z,1.20
2019-03-10T23:11:30.496Z,1.63
2019-03-10T23:14:19.265Z,1.90
2019-03-10T23:16:48.943Z,1.80
2019-03-10T23:19:18.628Z,1.60
2019-03-10T23:21:48.282Z,1.50
2019-03-10T23:24:17.920Z,1.80
2019-03-10T23:26:47.552Z,1.67
2019-03-10T23:29:17.219Z,1.33
2019-03-10T23:31:46.874Z,2.20
2019-03-10T23:34:16.526Z,1.47
2019-03-10T23:36:46.165Z,1.50
2019-03-10T23:39:15.897Z,1.40
2019-03-10T23:41:45.654Z,1.47
2019-03-10T23:44:15.292Z,1.17
2019-03-10T23:46:44.948Z,1.50
2019-03-10T23:49:14.648Z,1.60
2019-03-10T23:51:44.425Z,1.50
2019-03-10T23:54:14.135Z,1.40
2019-03-10T23:56:43.776Z,1.40
2019-03-10T23:59:13.499Z,1.53
